sensor_id;sensor_type;location;lat;lon;timestamp;P1;P4;P2;P0;N10;N4;N25;N1;N05;TS
78314;SPS30;68596;52.080;4.662;2023-12-22T00:01:54;9.89;8.46;5.85;2.44;19.95;19.80;19.16;15.75;8.71;1.00
78314;SPS30;68596;52.080;4.662;2023-12-22T00:04:39;10.58;9.06;6.31;2.69;21.96;21.80;21.13;17.52;9.95;0.99
78314;SPS30;68596;52.080;4.662;2023-12-22T00:07:23;10.86;9.28;6.40;2.64;21.55;21.39;20.69;16.92;9.20;1.01
78314;SPS30;68596;52.080;4.662;2023-12-22T00:10:07;11.70;9.96;6.79;2.66;21.79;21.61;20.84;16.69;8.45;1.04
78314;SPS30;68596;52.080;4.662;2023-12-22T00:12:52;11.84;10.09;6.90;2.75;22.54;22.36;21.58;17.42;9.05;1.02
78314;SPS30;68596;52.080;4.662;2023-12-22T00:15:36;11.19;9.55;6.56;2.67;21.84;21.67;20.95;17.04;9.11;1.01
78314;SPS30;68596;52.080;4.662;2023-12-22T00:18:20;11.37;9.70;6.66;2.71;22.12;21.95;21.21;17.24;9.18;1.01
78314;SPS30;68596;52.080;4.662;2023-12-22T00:21:04;11.80;10.07;6.92;2.80;22.94;22.76;21.99;17.87;9.51;1.01
78314;SPS30;68596;52.080;4.662;2023-12-22T00:23:52;11.68;9.97;6.86;2.81;22.98;22.80;22.05;17.98;9.70;1.01
78314;SPS30;68596;52.080;4.662;2023-12-22T00:26:37;11.49;9.84;6.86;2.94;24.00;23.82;23.10;19.18;10.96;0.97
78314;SPS30;68596;52.080;4.662;2023-12-22T00:29:21;12.15;10.44;7.32;3.23;26.33;26.15;25.40;21.31;12.56;0.95
78314;SPS30;68596;52.080;4.662;2023-12-22T00:32:08;12.11;10.41;7.30;3.22;26.24;26.06;25.30;21.23;12.51;0.95
78314;SPS30;68596;52.080;4.662;2023-12-22T00:34:53;13.49;11.56;8.05;3.45;28.16;27.96;27.10;22.50;12.84;0.99
78314;SPS30;68596;52.080;4.662;2023-12-22T00:37:37;13.78;11.78;8.15;3.40;27.80;27.59;26.71;21.95;12.14;1.00
78314;SPS30;68596;52.080;4.662;2023-12-22T00:40:21;10.30;8.85;6.22;2.76;22.46;22.31;21.67;18.21;10.79;0.96
78314;SPS30;68596;52.080;4.662;2023-12-22T00:43:05;11.33;9.70;6.75;2.89;23.54;23.37;22.66;18.79;10.69;0.98
78314;SPS30;68596;52.080;4.662;2023-12-22T00:45:49;11.69;10.01;6.95;2.94;24.01;23.84;23.09;19.08;10.74;0.98
78314;SPS30;68596;52.080;4.662;2023-12-22T00:48:33;11.21;9.58;6.61;2.73;22.32;22.15;21.43;17.54;9.57;1.00
78314;SPS30;68596;52.080;4.662;2023-12-22T00:51:17;11.81;10.10;7.00;2.93;23.94;23.76;23.00;18.93;10.51;0.99
78314;SPS30;68596;52.080;4.662;2023-12-22T00:54:02;12.87;11.01;7.62;3.19;26.04;25.84;25.02;20.58;11.41;1.00
78314;SPS30;68596;52.080;4.662;2023-12-22T00:56:46;13.27;11.35;7.87;3.31;27.02;26.82;25.97;21.40;11.94;0.98
78314;SPS30;68596;52.080;4.662;2023-12-22T00:59:30;13.19;11.26;7.75;3.16;25.86;25.65;24.80;20.20;10.85;1.02
78314;SPS30;68596;52.080;4.662;2023-12-22T01:02:14;13.73;11.70;8.02;3.22;26.33;26.12;25.23;20.41;10.70;1.02
78314;SPS30;68596;52.080;4.662;2023-12-22T01:04:59;14.20;12.14;8.40;3.51;28.68;28.46;27.55;22.65;12.53;1.00
78314;SPS30;68596;52.080;4.662;2023-12-22T01:07:43;14.22;12.19;8.49;3.64;29.66;29.45;28.55;23.70;13.52;0.99
78314;SPS30;68596;52.080;4.662;2023-12-22T01:10:27;13.06;11.16;7.72;3.21;26.24;26.04;25.20;20.69;11.40;1.00
78314;SPS30;68596;52.080;4.662;2023-12-22T01:13:11;12.63;10.80;7.48;3.13;25.58;25.38;24.58;20.22;11.22;1.00
78314;SPS30;68596;52.080;4.662;2023-12-22T01:15:55;12.08;10.37;7.27;3.20;26.10;25.92;25.16;21.10;12.40;0.97
78314;SPS30;68596;52.080;4.662;2023-12-22T01:18:39;12.04;10.33;7.21;3.13;25.51;25.33;24.57;20.48;11.84;0.98
78314;SPS30;68596;52.080;4.662;2023-12-22T01:21:26;13.12;11.20;7.71;3.15;25.79;25.59;24.74;20.17;10.86;1.02
78314;SPS30;68596;52.080;4.662;2023-12-22T01:24:10;11.98;10.29;7.20;3.16;25.73;25.56;24.81;20.76;12.14;0.96
78314;SPS30;68596;52.080;4.662;2023-12-22T01:26:54;11.94;10.24;7.14;3.08;25.16;24.98;24.22;20.17;11.61;0.98
78314;SPS30;68596;52.080;4.662;2023-12-22T01:29:38;12.42;10.62;7.34;3.05;24.93;24.74;23.94;19.65;10.81;1.00
78314;SPS30;68596;52.080;4.662;2023-12-22T01:32:22;12.73;10.84;7.41;2.94;24.10;23.91;23.07;18.59;9.60;1.03
78314;SPS30;68596;52.080;4.662;2023-12-22T01:35:06;13.46;11.53;8.03;3.43;27.99;27.78;26.93;22.33;12.70;0.99
78314;SPS30;68596;52.080;4.662;2023-12-22T01:37:53;12.61;10.81;7.52;3.21;26.23;26.04;25.24;20.93;11.91;1.01
78314;SPS30;68596;52.080;4.662;2023-12-22T01:40:38;14.07;12.01;8.26;3.38;27.60;27.38;26.47;21.57;11.59;1.02
78314;SPS30;68596;52.080;4.662;2023-12-22T01:43:22;13.10;11.19;7.71;3.16;25.81;25.61;24.76;20.20;10.91;1.00
78314;SPS30;68596;52.080;4.662;2023-12-22T01:46:07;14.21;12.12;8.34;3.39;27.73;27.52;26.59;21.64;11.57;1.00
78314;SPS30;68596;52.080;4.662;2023-12-22T01:48:52;15.19;12.93;8.82;3.47;28.39;28.15;27.15;21.78;11.08;1.03
78314;SPS30;68596;52.080;4.662;2023-12-22T01:51:36;12.63;10.79;7.43;3.05;24.94;24.74;23.93;19.53;10.56;1.00
78314;SPS30;68596;52.080;4.662;2023-12-22T01:54:23;13.40;11.47;7.97;3.39;27.64;27.44;26.59;22.00;12.42;0.98
78314;SPS30;68596;52.080;4.662;2023-12-22T01:57:08;11.69;10.01;6.96;2.97;24.21;24.03;23.29;19.29;10.93;0.98
78314;SPS30;68596;52.080;4.662;2023-12-22T01:59:56;12.63;10.82;7.54;3.24;26.46;26.27;25.47;21.17;12.12;0.97
78314;SPS30;68596;52.080;4.662;2023-12-22T02:02:41;13.81;11.82;8.21;3.48;28.40;28.19;27.31;22.57;12.71;0.98
78314;SPS30;68596;52.080;4.662;2023-12-22T02:05:28;11.62;9.95;6.90;2.91;23.73;23.56;22.82;18.82;10.53;1.00
78314;SPS30;68596;52.080;4.662;2023-12-22T02:08:13;13.13;11.22;7.76;3.23;26.40;26.20;25.36;20.82;11.48;1.02
78314;SPS30;68596;52.080;4.662;2023-12-22T02:11:02;15.09;12.84;8.77;3.46;28.30;28.06;27.07;21.74;11.11;1.05
78314;SPS30;68596;52.080;4.662;2023-12-22T02:13:46;14.86;12.63;8.58;3.31;27.09;26.86;25.88;20.58;10.15;1.05
78314;SPS30;68596;52.080;4.662;2023-12-22T02:16:45;15.41;13.08;8.85;3.35;27.51;27.26;26.24;20.71;9.92;1.05
78314;SPS30;68596;52.080;4.662;2023-12-22T02:22:30;13.73;11.77;8.20;3.53;28.79;28.58;27.72;23.04;13.20;0.96
78314;SPS30;68596;52.080;4.662;2023-12-22T02:25:15;11.72;10.10;7.16;3.29;26.80;26.63;25.92;22.06;13.55;0.93
78314;SPS30;68596;52.080;4.662;2023-12-22T02:30:56;11.15;9.64;6.89;3.26;26.52;26.36;25.69;22.08;13.93;0.93
78314;SPS30;68596;52.080;4.662;2023-12-22T02:33:44;13.00;11.15;7.79;3.39;27.64;27.45;26.63;22.23;12.89;0.98
78314;SPS30;68596;52.080;4.662;2023-12-22T02:36:33;12.30;10.54;7.34;3.15;25.71;25.53;24.75;20.56;11.75;0.98
78314;SPS30;68596;52.080;4.662;2023-12-22T02:39:22;12.72;10.88;7.52;3.13;25.55;25.35;24.54;20.14;11.08;0.99
78314;SPS30;68596;52.080;4.662;2023-12-22T02:42:07;13.16;11.22;7.70;3.10;25.37;25.17;24.31;19.70;10.39;1.00
78314;SPS30;68596;52.080;4.662;2023-12-22T02:44:52;12.14;10.38;7.18;2.99;24.43;24.25;23.47;19.27;10.63;0.99
78314;SPS30;68596;52.080;4.662;2023-12-22T02:47:36;12.28;10.52;7.32;3.13;25.54;25.36;24.58;20.39;11.60;0.97
78314;SPS30;68596;52.080;4.662;2023-12-22T02:50:20;10.79;9.30;6.60;3.03;24.67;24.51;23.85;20.29;12.45;0.94
78314;SPS30;68596;52.080;4.662;2023-12-22T02:53:05;10.35;8.91;6.30;2.86;23.30;23.15;22.51;19.08;11.58;0.95
78314;SPS30;68596;52.080;4.662;2023-12-22T02:55:49;11.69;10.00;6.92;2.89;23.60;23.42;22.67;18.64;10.31;1.00
78314;SPS30;68596;52.080;4.662;2023-12-22T02:58:33;10.52;9.05;6.38;2.86;23.30;23.15;22.50;18.99;11.39;0.94
78314;SPS30;68596;52.080;4.662;2023-12-22T03:01:17;9.99;8.64;6.19;2.94;23.92;23.78;23.18;19.95;12.63;0.91
78314;SPS30;68596;52.080;4.662;2023-12-22T03:04:01;9.48;8.20;5.89;2.83;22.97;22.84;22.27;19.23;12.27;0.91
78314;SPS30;68596;52.080;4.662;2023-12-22T03:06:45;11.54;9.94;7.03;3.19;26.01;25.84;25.13;21.31;12.95;0.95
78314;SPS30;68596;52.080;4.662;2023-12-22T03:09:29;11.23;9.63;6.73;2.92;23.85;23.69;22.98;19.18;11.12;0.99
78314;SPS30;68596;52.080;4.662;2023-12-22T03:12:14;11.89;10.15;6.99;2.87;23.42;23.24;22.47;18.33;9.89;1.01
78314;SPS30;68596;52.080;4.662;2023-12-22T03:14:58;10.98;9.41;6.54;2.79;22.79;22.62;21.92;18.17;10.32;0.98
78314;SPS30;68596;52.080;4.662;2023-12-22T03:17:42;12.40;10.59;7.31;3.01;24.60;24.41;23.61;19.30;10.49;1.00
78314;SPS30;68596;52.080;4.662;2023-12-22T03:20:26;12.64;10.79;7.42;3.02;24.68;24.49;23.67;19.26;10.30;1.01
78314;SPS30;68596;52.080;4.662;2023-12-22T03:23:10;12.26;10.49;7.26;3.04;24.82;24.63;23.84;19.62;10.88;0.99
78314;SPS30;68596;52.080;4.662;2023-12-22T03:25:54;11.15;9.59;6.74;3.00;24.42;24.26;23.57;19.83;11.78;0.95
78314;SPS30;68596;52.080;4.662;2023-12-22T03:28:38;9.87;8.51;6.06;2.82;22.92;22.77;22.17;18.95;11.76;0.93
78314;SPS30;68596;52.080;4.662;2023-12-22T03:31:22;11.46;9.84;6.89;3.02;24.60;24.43;23.71;19.84;11.60;0.97
78314;SPS30;68596;52.080;4.662;2023-12-22T03:34:06;11.61;9.93;6.87;2.86;23.39;23.21;22.47;18.45;10.18;0.99
78314;SPS30;68596;52.080;4.662;2023-12-22T03:36:51;12.13;10.39;7.21;3.06;24.97;24.78;24.01;19.85;11.19;0.98
78314;SPS30;68596;52.080;4.662;2023-12-22T03:39:35;12.12;10.35;7.15;2.96;24.17;23.98;23.20;19.00;10.39;0.99
78314;SPS30;68596;52.080;4.662;2023-12-22T03:42:19;12.44;10.64;7.36;3.08;25.17;24.98;24.19;19.90;11.04;1.00
78314;SPS30;68596;52.080;4.662;2023-12-22T03:45:03;13.26;11.35;7.89;3.35;27.31;27.11;26.27;21.73;12.25;0.99
78314;SPS30;68596;52.080;4.662;2023-12-22T03:47:47;13.50;11.49;7.83;3.07;25.14;24.93;24.04;19.26;9.76;1.04
78314;SPS30;68596;52.080;4.662;2023-12-22T03:50:32;13.91;11.86;8.13;3.26;26.66;26.44;25.53;20.65;10.81;1.02
78314;SPS30;68596;52.080;4.662;2023-12-22T03:53:16;12.45;10.65;7.38;3.10;25.30;25.11;24.32;20.03;11.15;0.99
78314;SPS30;68596;52.080;4.662;2023-12-22T03:56:00;11.24;9.64;6.74;2.93;23.88;23.71;23.00;19.20;11.13;0.97
78314;SPS30;68596;52.080;4.662;2023-12-22T03:58:44;12.04;10.30;7.13;2.99;24.45;24.26;23.49;19.35;10.77;1.01
78314;SPS30;68596;52.080;4.662;2023-12-22T04:01:28;12.32;10.50;7.20;2.88;23.58;23.39;22.59;18.26;9.55;1.03
78314;SPS30;68596;52.080;4.662;2023-12-22T04:04:12;11.90;10.17;7.01;2.88;23.56;23.38;22.61;18.48;10.02;1.01
78314;SPS30;68596;52.080;4.662;2023-12-22T04:06:56;11.13;9.54;6.66;2.88;23.48;23.32;22.62;18.84;10.86;0.97
78314;SPS30;68596;52.080;4.662;2023-12-22T04:09:40;11.78;10.08;6.99;2.94;24.03;23.85;23.10;19.05;10.65;1.00
78314;SPS30;68596;52.080;4.662;2023-12-22T04:12:25;11.45;9.78;6.74;2.77;22.65;22.48;21.74;17.76;9.63;1.01
78314;SPS30;68596;52.080;4.662;2023-12-22T04:15:09;12.09;10.30;7.06;2.83;23.17;22.99;22.20;17.96;9.41;1.03
78314;SPS30;68596;52.080;4.662;2023-12-22T04:17:52;12.24;10.42;7.10;2.79;22.86;22.67;21.86;17.53;8.91;1.05
78314;SPS30;68596;52.080;4.662;2023-12-22T04:20:37;13.06;11.12;7.61;3.02;24.74;24.54;23.68;19.08;9.87;1.05
78314;SPS30;68596;52.080;4.662;2023-12-22T04:23:21;12.05;10.24;6.95;2.67;21.90;21.71;20.91;16.61;8.16;1.05
78314;SPS30;68596;52.080;4.662;2023-12-22T04:26:05;12.66;10.77;7.35;2.89;23.64;23.45;22.62;18.14;9.22;1.03
78314;SPS30;68596;52.080;4.662;2023-12-22T04:28:49;11.07;9.48;6.58;2.79;22.80;22.63;21.92;18.13;10.22;0.98
78314;SPS30;68596;52.080;4.662;2023-12-22T04:31:33;10.77;9.21;6.38;2.67;21.81;21.64;20.95;17.24;9.57;1.00
78314;SPS30;68596;52.080;4.662;2023-12-22T04:34:17;9.09;7.76;5.34;2.18;17.82;17.68;17.09;13.93;7.48;1.01
78314;SPS30;68596;52.080;4.662;2023-12-22T04:37:01;10.50;8.96;6.17;2.52;20.62;20.46;19.78;16.12;8.68;1.01
78314;SPS30;68596;52.080;4.662;2023-12-22T04:39:45;11.28;9.59;6.50;2.49;20.41;20.24;19.49;15.45;7.54;1.05
78314;SPS30;68596;52.080;4.662;2023-12-22T04:42:29;11.31;9.62;6.53;2.52;20.67;20.49;19.75;15.71;7.77;1.06
78314;SPS30;68596;52.080;4.662;2023-12-22T04:45:13;9.52;8.15;5.65;2.38;19.45;19.30;18.70;15.43;8.63;1.00
78314;SPS30;68596;52.080;4.662;2023-12-22T04:47:57;9.77;8.39;5.90;2.62;21.34;21.20;20.59;17.31;10.27;0.98
78314;SPS30;68596;52.080;4.662;2023-12-22T04:50:42;10.31;8.85;6.20;2.71;22.12;21.97;21.32;17.84;10.43;0.98
78314;SPS30;68596;52.080;4.662;2023-12-22T04:53:26;10.78;9.22;6.38;2.66;21.75;21.58;20.89;17.17;9.50;1.01
78314;SPS30;68596;52.080;4.662;2023-12-22T04:56:10;11.13;9.54;6.66;2.88;23.46;23.29;22.59;18.81;10.83;0.98
78314;SPS30;68596;52.080;4.662;2023-12-22T04:58:54;9.94;8.53;5.96;2.59;21.14;21.00;20.37;17.00;9.86;0.99
78314;SPS30;68596;52.080;4.662;2023-12-22T05:01:38;11.54;9.90;6.92;3.00;24.49;24.32;23.59;19.68;11.39;0.98
78314;SPS30;68596;52.080;4.662;2023-12-22T05:04:22;10.15;8.75;6.19;2.82;22.98;22.83;22.21;18.85;11.48;0.94
78314;SPS30;68596;52.080;4.662;2023-12-22T05:07:06;9.80;8.44;5.97;2.71;22.07;21.93;21.33;18.08;10.98;0.94
78314;SPS30;68596;52.080;4.662;2023-12-22T05:09:50;10.74;9.25;6.54;2.97;24.15;23.99;23.33;19.77;11.99;0.94
78314;SPS30;68596;52.080;4.662;2023-12-22T05:12:36;10.06;8.70;6.22;2.94;23.92;23.78;23.18;19.92;12.56;0.92
78314;SPS30;68596;52.080;4.662;2023-12-22T05:15:21;9.00;7.78;5.55;2.61;21.24;21.11;20.57;17.64;11.06;0.94
78314;SPS30;68596;52.080;4.662;2023-12-22T05:18:05;10.06;8.64;6.05;2.64;21.56;21.41;20.78;17.38;10.14;0.97
78314;SPS30;68596;52.080;4.662;2023-12-22T05:20:49;9.48;8.14;5.69;2.47;20.15;20.01;19.41;16.19;9.39;0.97
78314;SPS30;68596;52.080;4.662;2023-12-22T05:23:33;9.84;8.49;6.02;2.77;22.52;22.38;21.78;18.54;11.38;0.94
78314;SPS30;68596;52.080;4.662;2023-12-22T05:26:17;9.42;8.11;5.73;2.59;21.09;20.96;20.37;17.24;10.42;0.97
78314;SPS30;68596;52.080;4.662;2023-12-22T05:29:02;10.57;9.10;6.42;2.91;23.67;23.51;22.86;19.35;11.70;0.96
78314;SPS30;68596;52.080;4.662;2023-12-22T05:31:46;10.41;8.95;6.28;2.79;22.70;22.54;21.89;18.40;10.89;0.97
78314;SPS30;68596;52.080;4.662;2023-12-22T05:34:30;11.17;9.58;6.69;2.90;23.68;23.51;22.81;19.02;11.01;0.99
78314;SPS30;68596;52.080;4.662;2023-12-22T05:37:15;11.15;9.55;6.65;2.84;23.20;23.03;22.32;18.52;10.54;0.99
78314;SPS30;68596;52.080;4.662;2023-12-22T05:39:59;11.99;10.27;7.14;3.04;24.79;24.61;23.85;19.75;11.18;1.00
78314;SPS30;68596;52.080;4.662;2023-12-22T05:42:43;12.97;11.10;7.72;3.29;26.83;26.63;25.81;21.37;12.10;0.99
78314;SPS30;68596;52.080;4.662;2023-12-22T05:45:27;13.43;11.45;7.86;3.17;25.95;25.74;24.87;20.17;10.67;1.02
78314;SPS30;68596;52.080;4.662;2023-12-22T05:48:12;14.43;12.34;8.54;3.56;29.08;28.86;27.93;22.95;12.67;0.99
78314;SPS30;68596;52.080;4.662;2023-12-22T05:50:56;15.02;12.84;8.89;3.72;30.41;30.18;29.22;24.05;13.35;0.99
78314;SPS30;68596;52.080;4.662;2023-12-22T05:53:41;14.91;12.81;9.01;4.00;32.61;32.39;31.47;26.47;15.72;0.96
78314;SPS30;68596;52.080;4.662;2023-12-22T05:56:26;14.39;12.38;8.72;3.92;31.89;31.68;30.79;25.99;15.60;0.96
78314;SPS30;68596;52.080;4.662;2023-12-22T05:59:11;13.90;11.98;8.50;3.90;31.76;31.56;30.71;26.13;16.03;0.95
78314;SPS30;68596;52.080;4.662;2023-12-22T06:01:55;14.69;12.62;8.86;3.92;31.92;31.70;30.78;25.84;15.26;0.97
78314;SPS30;68596;52.080;4.662;2023-12-22T06:04:40;15.71;13.49;9.46;4.17;34.02;33.79;32.81;27.52;16.21;0.96
78314;SPS30;68596;52.080;4.662;2023-12-22T06:07:24;15.55;13.36;9.37;4.12;33.62;33.39;32.41;27.18;15.98;0.96
78314;SPS30;68596;52.080;4.662;2023-12-22T06:10:09;15.73;13.55;9.57;4.34;35.33;35.10;34.13;28.91;17.51;0.96
78314;SPS30;68596;52.080;4.662;2023-12-22T06:12:53;17.29;14.87;10.45;4.65;37.87;37.62;36.54;30.75;18.28;0.96
78314;SPS30;68596;52.080;4.662;2023-12-22T06:15:38;17.37;14.95;10.53;4.72;38.49;38.23;37.16;31.36;18.81;0.94
78314;SPS30;68596;52.080;4.662;2023-12-22T06:18:22;15.88;13.64;9.57;4.22;34.39;34.15;33.16;27.82;16.39;0.97
78314;SPS30;68596;52.080;4.662;2023-12-22T06:21:06;17.67;15.22;10.76;4.89;39.80;39.55;38.46;32.60;19.80;0.96
78314;SPS30;68596;52.080;4.662;2023-12-22T06:23:50;17.03;14.72;10.51;4.95;40.29;40.04;39.02;33.49;21.04;0.93
78314;SPS30;68596;52.080;4.662;2023-12-22T06:26:34;17.88;15.35;10.76;4.73;38.56;38.30;37.18;31.16;18.30;0.97
78314;SPS30;68596;52.080;4.662;2023-12-22T06:29:18;16.81;14.53;10.38;4.89;39.76;39.52;38.50;33.04;20.76;0.93
78314;SPS30;68596;52.080;4.662;2023-12-22T06:32:02;18.06;15.62;11.18;5.31;43.14;42.88;41.80;35.96;22.74;0.92
78314;SPS30;68596;52.080;4.662;2023-12-22T06:34:50;19.14;16.48;11.65;5.29;43.04;42.76;41.59;35.24;21.38;0.96
78314;SPS30;68596;52.080;4.662;2023-12-22T06:37:34;19.83;17.09;12.11;5.55;45.15;44.86;43.65;37.11;22.72;0.93
78314;SPS30;68596;52.080;4.662;2023-12-22T06:40:18;19.69;16.94;11.93;5.34;43.49;43.20;41.98;35.40;21.18;0.96
78314;SPS30;68596;52.080;4.662;2023-12-22T06:43:02;20.96;18.00;12.61;5.53;45.09;44.78;43.47;36.40;21.32;0.97
78314;SPS30;68596;52.080;4.662;2023-12-22T06:45:48;20.09;17.34;12.35;5.75;46.77;46.48;45.26;38.70;24.06;0.93
78314;SPS30;68596;52.080;4.662;2023-12-22T06:48:32;20.73;17.78;12.40;5.35;43.62;43.31;42.00;34.95;20.09;0.99
78314;SPS30;68596;52.080;4.662;2023-12-22T06:51:17;22.06;18.89;13.12;5.57;45.46;45.13;43.72;36.16;20.40;1.00
78314;SPS30;68596;52.080;4.662;2023-12-22T06:54:08;20.27;17.43;12.27;5.48;44.62;44.32;43.06;36.28;21.65;0.97
78314;SPS30;68596;52.080;4.662;2023-12-22T06:56:52;21.53;18.47;12.90;5.60;45.67;45.35;44.00;36.70;21.25;0.98
78314;SPS30;68596;52.080;4.662;2023-12-22T06:59:36;20.48;17.55;12.22;5.25;42.82;42.51;41.21;34.24;19.57;0.98
78314;SPS30;68596;52.080;4.662;2023-12-22T07:02:21;22.84;19.52;13.49;5.61;45.85;45.50;44.03;36.14;19.88;1.01
78314;SPS30;68596;52.080;4.662;2023-12-22T07:07:55;20.21;17.30;12.02;5.10;41.62;41.32;40.03;33.11;18.67;1.01
78314;SPS30;68596;52.080;4.662;2023-12-22T07:10:39;20.26;17.38;12.13;5.26;42.87;42.56;41.29;34.41;19.88;1.00
78314;SPS30;68596;52.080;4.662;2023-12-22T07:13:23;17.81;15.34;10.86;4.94;40.25;39.99;38.90;33.01;20.09;0.95
78314;SPS30;68596;52.080;4.662;2023-12-22T07:16:08;20.46;17.56;12.28;5.36;43.69;43.39;42.10;35.18;20.48;0.97
78314;SPS30;68596;52.080;4.662;2023-12-22T07:18:55;21.23;18.18;12.64;5.37;43.87;43.55;42.20;34.93;19.75;1.00
78314;SPS30;68596;52.080;4.662;2023-12-22T07:21:39;21.16;18.07;12.45;5.12;41.81;41.49;40.12;32.76;17.74;1.02
78314;SPS30;68596;52.080;4.662;2023-12-22T07:24:24;19.89;17.04;11.85;5.06;41.30;41.00;39.74;32.94;18.71;1.00
78314;SPS30;68596;52.080;4.662;2023-12-22T07:27:08;18.73;16.06;11.22;4.86;39.65;39.37;38.19;31.84;18.40;0.98
78314;SPS30;68596;52.080;4.662;2023-12-22T07:29:52;16.78;14.42;10.12;4.48;36.49;36.25;35.20;29.56;17.47;0.96
78314;SPS30;68596;52.080;4.662;2023-12-22T07:32:36;15.54;13.40;9.49;4.35;35.41;35.18;34.23;29.10;17.82;0.93
78314;SPS30;68596;52.080;4.662;2023-12-22T07:35:20;14.74;12.75;9.14;4.36;35.46;35.25;34.37;29.62;18.82;0.89
78314;SPS30;68596;52.080;4.662;2023-12-22T07:38:05;15.51;13.43;9.67;4.67;37.97;37.75;36.83;31.87;20.48;0.91
78314;SPS30;68596;52.080;4.662;2023-12-22T07:40:49;16.67;14.37;10.17;4.64;37.80;37.56;36.53;31.02;18.93;0.94
78314;SPS30;68596;52.080;4.662;2023-12-22T07:43:33;15.28;13.16;9.30;4.21;34.27;34.04;33.10;28.03;16.96;0.97
78314;SPS30;68596;52.080;4.662;2023-12-22T07:46:19;15.11;13.00;9.18;4.15;33.83;33.61;32.68;27.66;16.72;0.96
78314;SPS30;68596;52.080;4.662;2023-12-22T07:49:03;13.90;11.99;8.52;3.94;32.07;31.86;31.02;26.46;16.34;0.93
78314;SPS30;68596;52.080;4.662;2023-12-22T07:51:47;13.49;11.67;8.35;3.96;32.17;31.98;31.17;26.80;16.93;0.93
78314;SPS30;68596;52.080;4.662;2023-12-22T07:54:31;15.90;13.63;9.51;4.11;33.52;33.28;32.28;26.87;15.48;0.98
78314;SPS30;68596;52.080;4.662;2023-12-22T07:57:15;13.69;11.82;8.40;3.90;31.69;31.50;30.66;26.18;16.21;0.91
78314;SPS30;68596;52.080;4.662;2023-12-22T07:59:59;14.63;12.61;8.95;4.12;33.49;33.28;32.38;27.57;16.94;0.93
78314;SPS30;68596;52.080;4.662;2023-12-22T08:02:44;14.06;12.12;8.60;3.96;32.19;31.99;31.13;26.50;16.29;0.92
78314;SPS30;68596;52.080;4.662;2023-12-22T08:05:28;13.19;11.37;8.07;3.72;30.26;30.07;29.26;24.93;15.34;0.93
78314;SPS30;68596;52.080;4.662;2023-12-22T08:08:13;13.58;11.67;8.20;3.63;29.59;29.39;28.55;23.99;14.20;0.96
78314;SPS30;68596;52.080;4.662;2023-12-22T08:10:57;12.13;10.46;7.43;3.43;27.89;27.71;26.98;22.99;14.17;0.94
78314;SPS30;68596;52.080;4.662;2023-12-22T08:13:41;12.01;10.33;7.29;3.28;26.75;26.57;25.83;21.84;13.15;0.95
78314;SPS30;68596;52.080;4.662;2023-12-22T08:16:25;11.60;10.00;7.09;3.25;26.42;26.25;25.54;21.71;13.29;0.93
78314;SPS30;68596;52.080;4.662;2023-12-22T08:19:09;11.71;10.11;7.19;3.34;27.15;26.98;26.27;22.43;13.91;0.93
78314;SPS30;68596;52.080;4.662;2023-12-22T08:21:54;11.36;9.81;6.99;3.27;26.57;26.40;25.72;22.01;13.72;0.92
78314;SPS30;68596;52.080;4.662;2023-12-22T08:24:38;11.27;9.73;6.92;3.21;26.14;25.98;25.30;21.61;13.40;0.92
78314;SPS30;68596;52.080;4.662;2023-12-22T08:27:26;10.23;8.84;6.31;2.96;24.08;23.93;23.32;19.99;12.52;0.92
78314;SPS30;68596;52.080;4.662;2023-12-22T08:30:10;9.67;8.38;6.04;2.93;23.76;23.62;23.05;19.96;12.85;0.90
78314;SPS30;68596;52.080;4.662;2023-12-22T08:32:54;9.28;8.06;5.84;2.89;23.43;23.30;22.76;19.83;12.97;0.89
78314;SPS30;68596;52.080;4.662;2023-12-22T08:35:38;8.35;7.29;5.36;2.77;22.47;22.35;21.88;19.33;13.08;0.85
78314;SPS30;68596;52.080;4.662;2023-12-22T08:38:22;8.68;7.57;5.54;2.84;23.01;22.89;22.39;19.72;13.24;0.85
78314;SPS30;68596;52.080;4.662;2023-12-22T08:41:07;8.71;7.58;5.52;2.79;22.59;22.47;21.97;19.26;12.79;0.87
78314;SPS30;68596;52.080;4.662;2023-12-22T08:43:52;8.45;7.35;5.36;2.70;21.93;21.82;21.33;18.70;12.43;0.87
78314;SPS30;68596;52.080;4.662;2023-12-22T08:46:36;7.81;6.79;4.93;2.46;19.95;19.84;19.39;16.94;11.15;0.87
78314;SPS30;68596;52.080;4.662;2023-12-22T08:49:21;6.99;6.09;4.46;2.27;18.43;18.33;17.93;15.77;10.56;0.87
78314;SPS30;68596;52.080;4.662;2023-12-22T08:52:05;6.71;5.84;4.24;2.12;17.18;17.08;16.69;14.59;9.62;0.89
78314;SPS30;68596;52.080;4.662;2023-12-22T08:54:49;6.88;6.01;4.42;2.29;18.59;18.49;18.10;16.00;10.85;0.86
78314;SPS30;68596;52.080;4.662;2023-12-22T08:57:33;6.23;5.41;3.90;1.91;15.47;15.39;15.02;13.04;8.44;0.91
78314;SPS30;68596;52.080;4.662;2023-12-22T09:00:17;7.86;6.80;4.86;2.29;18.62;18.51;18.03;15.48;9.73;0.91
78314;SPS30;68596;52.080;4.662;2023-12-22T09:03:02;5.67;4.90;3.51;1.68;13.64;13.56;13.22;11.40;7.25;0.90
78314;SPS30;68596;52.080;4.662;2023-12-22T09:05:46;6.72;5.81;4.15;1.96;15.91;15.81;15.41;13.22;8.32;0.93
78314;SPS30;68596;52.080;4.662;2023-12-22T09:08:31;6.75;5.81;4.10;1.86;15.11;15.01;14.59;12.35;7.46;0.96
78314;SPS30;68596;52.080;4.662;2023-12-22T09:11:16;6.02;5.21;3.72;1.77;14.36;14.27;13.91;11.96;7.56;0.92
78314;SPS30;68596;52.080;4.662;2023-12-22T09:14:01;5.60;4.87;3.53;1.76;14.28;14.20;13.88;12.12;7.97;0.88
78314;SPS30;68596;52.080;4.662;2023-12-22T09:16:45;5.77;5.01;3.62;1.77;14.40;14.31;13.98;12.15;7.89;0.91
78314;SPS30;68596;52.080;4.662;2023-12-22T09:19:32;6.13;5.30;3.80;1.81;14.72;14.64;14.27;12.30;7.81;0.92
78314;SPS30;68596;52.080;4.662;2023-12-22T09:22:17;6.33;5.47;3.92;1.86;15.12;15.03;14.65;12.61;7.98;0.92
78314;SPS30;68596;52.080;4.662;2023-12-22T09:25:01;5.55;4.80;3.45;1.66;13.50;13.42;13.09;11.31;7.24;0.91
78314;SPS30;68596;52.080;4.662;2023-12-22T09:27:45;5.87;5.10;3.68;1.80;14.64;14.55;14.21;12.35;8.01;0.89
78314;SPS30;68596;52.080;4.662;2023-12-22T09:30:29;6.44;5.57;3.99;1.90;15.41;15.32;14.94;12.86;8.15;0.91
78314;SPS30;68596;52.080;4.662;2023-12-22T09:33:14;5.11;4.42;3.17;1.51;12.26;12.18;11.88;10.23;6.48;0.91
78314;SPS30;68596;52.080;4.662;2023-12-22T09:35:57;4.69;4.06;2.90;1.37;11.18;11.11;10.83;9.31;5.88;0.92
78314;SPS30;68596;52.080;4.662;2023-12-22T09:38:42;5.24;4.53;3.25;1.55;12.63;12.55;12.24;10.55;6.72;0.92
78314;SPS30;68596;52.080;4.662;2023-12-22T09:41:27;4.73;4.13;3.05;1.59;12.91;12.85;12.59;11.15;7.60;0.85
78314;SPS30;68596;52.080;4.662;2023-12-22T09:44:12;4.86;4.27;3.19;1.74;14.06;14.00;13.73;12.31;8.62;0.83
78314;SPS30;68596;52.080;4.662;2023-12-22T09:46:57;5.02;4.41;3.32;1.84;14.87;14.81;14.54;13.09;9.26;0.82
78314;SPS30;68596;52.080;4.662;2023-12-22T09:49:45;4.70;4.17;3.19;1.86;15.00;14.95;14.71;13.41;9.77;0.77
78314;SPS30;68596;52.080;4.662;2023-12-22T09:52:32;4.41;3.93;3.04;1.82;14.70;14.65;14.43;13.25;9.80;0.75
78314;SPS30;68596;52.080;4.662;2023-12-22T09:55:21;3.81;3.39;2.63;1.58;12.74;12.69;12.50;11.49;8.51;0.76
78314;SPS30;68596;52.080;4.662;2023-12-22T09:58:06;4.22;3.75;2.91;1.75;14.10;14.05;13.84;12.72;9.41;0.75
78314;SPS30;68596;52.080;4.662;2023-12-22T10:00:53;4.75;4.19;3.18;1.81;14.65;14.59;14.34;13.00;9.35;0.79
78314;SPS30;68596;52.080;4.662;2023-12-22T10:03:40;5.40;4.75;3.56;1.96;15.82;15.75;15.46;13.89;9.78;0.81
78314;SPS30;68596;52.080;4.662;2023-12-22T10:06:26;4.87;4.27;3.18;1.71;13.82;13.76;13.49;12.04;8.36;0.81
78314;SPS30;68596;52.080;4.662;2023-12-22T10:09:11;5.35;4.68;3.47;1.84;14.92;14.84;14.55;12.94;8.91;0.82
78314;SPS30;68596;52.080;4.662;2023-12-22T10:11:58;8.30;7.54;6.15;4.17;33.50;33.42;33.07;31.19;24.39;0.65
78314;SPS30;68596;52.080;4.662;2023-12-22T10:14:46;3.62;3.33;2.79;2.01;16.11;16.08;15.94;15.21;12.17;0.64
78314;SPS30;68596;52.080;4.662;2023-12-22T10:17:31;3.81;3.45;2.80;1.87;15.05;15.01;14.85;13.97;10.87;0.69
78314;SPS30;68596;52.080;4.662;2023-12-22T10:20:16;4.91;4.38;3.42;2.10;16.91;16.85;16.61;15.33;11.46;0.73